Time;durP1;ratioP1;P1;durP2;ratioP2;P2;SDS_P1;SDS_P2;PMS_P1;PMS_P2;Temp;Humidity;BMP_temperature;BMP_pressure;BME280_temperature;BME280_humidity;BME280_pressure;Samples;Min_cycle;Max_cycle;Signal;HPM_P1;HPM_P2
2021/04/03 00:02:22;;;;;;;24.52;14.00;;;7.60;59.10;;;;;;5011670;28;20052;-77
2021/04/03 00:04:47;;;;;;;25.63;14.60;;;7.50;58.90;;;;;;5027897;28;20336;-76
2021/04/03 00:07:14;;;;;;;24.20;14.20;;;7.50;58.90;;;;;;5027649;28;20045;-77
2021/04/03 00:09:39;;;;;;;28.35;15.98;;;7.50;58.90;;;;;;5012728;28;20033;-77
2021/04/03 00:12:07;;;;;;;27.60;15.93;;;7.50;58.80;;;;;;5028038;28;20018;-76
2021/04/03 00:14:33;;;;;;;23.63;14.25;;;7.30;59.10;;;;;;5012448;28;20088;-76
2021/04/03 00:16:58;;;;;;;26.98;15.25;;;7.20;59.50;;;;;;5027788;28;20026;-77
2021/04/03 00:19:24;;;;;;;24.85;15.32;;;7.30;59.60;;;;;;5027925;28;20437;-75
2021/04/03 00:21:49;;;;;;;27.42;15.50;;;7.40;59.50;;;;;;5012509;28;20029;-76
2021/04/03 00:24:15;;;;;;;28.48;15.85;;;7.50;59.10;;;;;;5027682;28;20026;-77
2021/04/03 00:26:40;;;;;;;28.50;15.23;;;7.40;59.00;;;;;;4995160;28;20083;-76
2021/04/03 00:29:06;;;;;;;31.23;15.88;;;7.00;59.40;;;;;;5028659;28;20493;-75
2021/04/03 00:31:32;;;;;;;32.47;16.40;;;7.00;60.30;;;;;;5030905;28;20021;-76
2021/04/03 00:33:58;;;;;;;26.02;15.70;;;6.70;60.90;;;;;;5031817;28;20026;-76
2021/04/03 00:36:24;;;;;;;27.08;17.20;;;6.70;61.50;;;;;;5031958;28;20437;-76
2021/04/03 00:38:49;;;;;;;29.35;16.13;;;6.60;61.70;;;;;;5032024;28;20056;-76
2021/04/03 00:41:15;;;;;;;29.75;17.02;;;6.60;62.30;;;;;;5031716;28;20021;-76
2021/04/03 00:43:41;;;;;;;34.40;16.85;;;6.60;63.40;;;;;;5031713;28;20124;-77
2021/04/03 00:46:06;;;;;;;28.13;15.90;;;6.60;62.50;;;;;;5016337;28;20410;-74
2021/04/03 00:48:32;;;;;;;27.45;16.52;;;6.70;62.10;;;;;;5030774;28;20053;-74
2021/04/03 00:50:57;;;;;;;28.58;16.05;;;6.80;61.80;;;;;;5030832;28;20383;-74
2021/04/03 00:53:26;;;;;;;30.17;16.27;;;6.80;61.50;;;;;;5030925;28;20129;-77
2021/04/03 00:55:56;;;;;;;29.40;16.00;;;6.60;61.70;;;;;;5030840;28;20451;-76
2021/04/03 00:58:22;;;;;;;26.17;15.23;;;6.70;61.60;;;;;;5016430;28;20323;-78
2021/04/03 01:00:49;;;;;;;29.73;15.95;;;6.90;61.50;;;;;;5031217;28;20061;-76
2021/04/03 01:03:15;;;;;;;31.25;16.67;;;6.80;61.20;;;;;;5018392;28;20177;-75
2021/04/03 01:05:41;;;;;;;29.13;15.55;;;6.60;61.80;;;;;;5025089;28;20037;-76
2021/04/03 01:08:07;;;;;;;29.65;16.27;;;6.50;62.40;;;;;;5032776;28;20046;-76
2021/04/03 01:10:39;;;;;;;24.90;15.13;;;6.50;62.30;;;;;;5021855;28;20102;-76
2021/04/03 01:13:39;;;;;;;25.92;14.60;;;6.60;62.20;;;;;;4998904;28;20034;-75
2021/04/03 01:16:15;;;;;;;23.98;14.10;;;6.70;61.90;;;;;;5015508;28;20072;-75
2021/04/03 01:18:57;;;;;;;24.45;13.50;;;6.80;61.50;;;;;;5016540;28;20049;-76
2021/04/03 01:22:08;;;;;;;24.90;13.15;;;6.90;60.90;;;;;;5030448;28;20034;-76
2021/04/03 01:25:13;;;;;;;24.95;14.27;;;6.80;60.60;;;;;;4954514;29;20054;-76
2021/04/03 01:28:05;;;;;;;22.75;12.85;;;6.70;60.90;;;;;;4997313;28;20030;-75
2021/04/03 01:30:33;;;;;;;25.02;13.10;;;6.40;61.50;;;;;;4992706;28;20462;-76
2021/04/03 01:33:10;;;;;;;23.73;12.45;;;6.40;61.90;;;;;;5029744;28;20037;-77
2021/04/03 01:35:43;;;;;;;22.92;12.43;;;6.30;62.40;;;;;;4996871;28;20495;-76
2021/04/03 01:38:14;;;;;;;21.45;11.63;;;6.20;62.80;;;;;;4997306;28;20518;-74
2021/04/03 01:40:40;;;;;;;24.83;13.10;;;6.30;63.10;;;;;;4997104;28;20664;-76
2021/04/03 01:43:18;;;;;;;22.63;11.73;;;6.20;62.90;;;;;;5014335;28;20053;-76
2021/04/03 01:45:47;;;;;;;18.80;11.07;;;6.20;63.30;;;;;;4996857;28;20022;-76
2021/04/03 01:48:16;;;;;;;19.58;10.38;;;6.40;63.00;;;;;;5014379;28;20393;-76
2021/04/03 01:50:43;;;;;;;20.23;10.10;;;6.50;63.50;;;;;;4996939;28;20025;-77
2021/04/03 01:53:10;;;;;;;16.13;10.40;;;6.60;62.10;;;;;;5029791;28;20025;-76
2021/04/03 01:55:37;;;;;;;19.25;10.68;;;6.70;62.10;;;;;;4996373;28;20072;-76
2021/04/03 01:58:04;;;;;;;19.33;10.35;;;6.70;61.50;;;;;;4996724;28;20022;-76
2021/04/03 02:00:32;;;;;;;20.52;10.15;;;6.40;61.80;;;;;;5029771;28;20459;-75
2021/04/03 02:02:58;;;;;;;18.23;10.43;;;6.50;62.10;;;;;;5029496;28;20038;-75
2021/04/03 02:05:25;;;;;;;19.95;10.85;;;6.40;62.10;;;;;;5014137;28;20505;-75
2021/04/03 02:07:51;;;;;;;18.67;9.90;;;6.50;62.40;;;;;;4996451;28;20092;-75
2021/04/03 02:10:22;;;;;;;18.67;9.50;;;6.50;62.30;;;;;;5029484;28;20068;-76
2021/04/03 02:12:49;;;;;;;17.55;9.15;;;6.50;62.30;;;;;;4996685;28;20025;-76
2021/04/03 02:15:15;;;;;;;18.15;9.77;;;6.50;62.10;;;;;;4996502;28;20037;-74
2021/04/03 02:17:44;;;;;;;18.13;8.88;;;6.50;61.90;;;;;;5029088;28;20033;-75
2021/04/03 02:20:11;;;;;;;17.95;8.80;;;6.50;62.10;;;;;;5029372;28;20474;-75
2021/04/03 02:22:37;;;;;;;15.85;7.90;;;6.50;61.80;;;;;;4996233;28;20065;-75
2021/04/03 02:25:08;;;;;;;14.57;8.80;;;6.60;61.50;;;;;;5029151;28;20383;-74
2021/04/03 02:27:34;;;;;;;13.90;7.43;;;6.60;61.20;;;;;;4996334;28;20026;-75
2021/04/03 02:30:12;;;;;;;18.08;8.07;;;6.60;60.90;;;;;;5029422;28;20044;-75
2021/04/03 02:32:44;;;;;;;16.27;7.80;;;6.60;60.60;;;;;;5029089;28;20399;-76
2021/04/03 02:35:10;;;;;;;22.90;8.18;;;6.70;60.60;;;;;;4996426;28;20077;-76
2021/04/03 02:37:36;;;;;;;22.05;8.38;;;6.70;60.10;;;;;;5028845;28;20030;-76
2021/04/03 02:40:05;;;;;;;15.68;7.65;;;6.70;59.80;;;;;;5028801;28;20467;-76
2021/04/03 02:42:33;;;;;;;12.43;7.22;;;6.60;59.40;;;;;;4995996;28;20041;-75
2021/04/03 02:45:03;;;;;;;15.98;7.97;;;6.60;59.30;;;;;;5013721;28;20066;-75
2021/04/03 02:47:46;;;;;;;12.85;7.40;;;6.70;58.80;;;;;;4995639;28;20030;-76
2021/04/03 02:50:20;;;;;;;14.52;7.32;;;6.60;58.60;;;;;;4996109;28;20080;-75
2021/04/03 02:52:51;;;;;;;16.50;7.00;;;6.60;58.40;;;;;;5013301;28;20030;-76
2021/04/03 02:55:18;;;;;;;18.27;7.57;;;6.60;58.10;;;;;;4995619;28;20026;-76
2021/04/03 02:57:45;;;;;;;12.75;7.32;;;6.60;57.80;;;;;;4995460;28;20041;-76
2021/04/03 03:00:12;;;;;;;14.45;7.30;;;6.60;57.50;;;;;;4995768;28;20026;-76
2021/04/03 03:02:38;;;;;;;11.95;7.25;;;6.60;57.40;;;;;;4995366;28;20064;-76
2021/04/03 03:05:08;;;;;;;15.20;6.88;;;6.60;57.30;;;;;;5028577;28;20108;-76
2021/04/03 03:07:34;;;;;;;14.15;6.30;;;6.70;57.10;;;;;;5013118;28;20050;-76
2021/04/03 03:10:01;;;;;;;10.73;5.88;;;6.70;56.80;;;;;;4995693;28;20438;-76
2021/04/03 03:12:29;;;;;;;12.50;6.72;;;6.80;56.40;;;;;;5028306;28;20177;-76
2021/04/03 03:14:56;;;;;;;9.07;5.85;;;6.80;56.10;;;;;;4995234;28;20478;-76
2021/04/03 03:17:22;;;;;;;12.85;7.07;;;6.80;55.90;;;;;;5028246;28;20033;-75
2021/04/03 03:19:49;;;;;;;12.73;6.03;;;6.80;55.60;;;;;;4995258;28;20022;-76
2021/04/03 03:22:15;;;;;;;13.48;7.45;;;6.80;55.40;;;;;;5027624;28;20076;-76
2021/04/03 03:24:41;;;;;;;12.82;6.57;;;6.80;55.20;;;;;;5028382;28;20398;-76
2021/04/03 03:27:08;;;;;;;12.18;6.93;;;6.80;55.10;;;;;;5032385;28;20113;-75
2021/04/03 03:29:35;;;;;;;13.75;6.95;;;6.80;56.00;;;;;;5037826;28;20010;-75
2021/04/03 03:32:01;;;;;;;15.00;7.30;;;6.70;55.20;;;;;;5033777;28;20056;-76
2021/04/03 03:34:28;;;;;;;11.35;6.80;;;6.70;55.40;;;;;;5043866;28;20022;-76
2021/04/03 03:36:53;;;;;;;10.50;6.18;;;6.70;55.50;;;;;;5016236;28;20056;-76
2021/04/03 03:39:20;;;;;;;12.77;6.60;;;6.70;55.40;;;;;;5028289;28;20034;-76
2021/04/03 03:41:46;;;;;;;13.85;6.50;;;6.70;55.20;;;;;;4994821;28;20117;-75
2021/04/03 03:44:12;;;;;;;14.57;6.88;;;6.60;55.10;;;;;;4994981;28;20026;-74
2021/04/03 03:46:38;;;;;;;14.50;6.65;;;6.70;55.10;;;;;;4994944;28;20037;-73
2021/04/03 03:49:04;;;;;;;11.43;6.32;;;6.60;54.80;;;;;;5028092;28;20026;-74
2021/04/03 03:51:31;;;;;;;15.68;7.43;;;6.60;54.60;;;;;;5027739;28;20479;-75
2021/04/03 03:53:57;;;;;;;15.23;6.97;;;6.60;54.50;;;;;;5012968;28;20471;-73
2021/04/03 03:56:22;;;;;;;13.95;7.05;;;6.50;54.60;;;;;;5028303;28;20018;-73
2021/04/03 03:58:48;;;;;;;13.02;6.38;;;6.50;54.50;;;;;;5028430;28;20493;-73
2021/04/03 04:01:14;;;;;;;13.00;7.00;;;6.30;54.80;;;;;;5027375;28;20033;-75
2021/04/03 04:03:39;;;;;;;10.65;6.53;;;6.20;55.20;;;;;;5012630;28;20397;-75
2021/04/03 04:06:05;;;;;;;13.90;7.00;;;6.20;55.20;;;;;;5030648;28;20032;-73
2021/04/03 04:08:32;;;;;;;15.75;6.90;;;6.10;55.50;;;;;;4998886;28;20553;-75
2021/04/03 04:10:58;;;;;;;12.15;6.85;;;6.10;55.70;;;;;;4998625;28;20026;-75
2021/04/03 04:13:24;;;;;;;16.35;6.13;;;6.10;55.90;;;;;;4998911;28;20033;-76
2021/04/03 04:15:51;;;;;;;11.00;5.75;;;6.30;55.80;;;;;;4998738;28;20095;-74
2021/04/03 04:18:16;;;;;;;11.80;6.53;;;6.40;55.50;;;;;;4998839;28;20052;-74
2021/04/03 04:20:42;;;;;;;14.07;7.13;;;6.50;55.20;;;;;;5016307;28;20470;-76
2021/04/03 04:23:08;;;;;;;12.60;5.78;;;6.50;54.90;;;;;;4998777;28;20559;-73
2021/04/03 04:25:33;;;;;;;12.55;6.90;;;6.60;54.50;;;;;;5016207;28;20083;-76
2021/04/03 04:27:59;;;;;;;12.68;6.05;;;6.60;54.10;;;;;;4998634;28;20092;-74
2021/04/03 04:30:24;;;;;;;14.15;6.32;;;6.50;53.70;;;;;;4998736;28;20018;-74
2021/04/03 04:32:50;;;;;;;11.13;5.85;;;6.50;53.80;;;;;;4998941;28;20129;-74
2021/04/03 04:35:15;;;;;;;12.40;6.75;;;6.50;53.80;;;;;;4998828;28;20025;-74
2021/04/03 04:37:42;;;;;;;16.63;6.13;;;6.60;53.80;;;;;;4998845;28;20026;-77
2021/04/03 04:40:10;;;;;;;14.30;6.35;;;6.60;53.60;;;;;;4998578;28;20066;-76
2021/04/03 04:42:38;;;;;;;8.38;4.85;;;6.60;53.60;;;;;;4998144;28;20038;-77
2021/04/03 04:45:05;;;;;;;13.02;6.57;;;6.60;53.60;;;;;;4998734;28;20022;-76
2021/04/03 04:47:30;;;;;;;10.77;5.95;;;6.60;53.40;;;;;;4998532;28;20034;-75
2021/04/03 04:49:56;;;;;;;10.23;5.90;;;6.70;53.30;;;;;;5016015;28;20486;-76
2021/04/03 04:52:22;;;;;;;13.43;6.25;;;6.60;54.10;;;;;;5015839;28;20045;-76
2021/04/03 04:54:47;;;;;;;9.05;6.07;;;6.60;53.40;;;;;;4998166;28;20036;-76
2021/04/03 04:57:13;;;;;;;11.63;5.93;;;6.60;53.30;;;;;;4998080;28;20026;-75
2021/04/03 04:59:39;;;;;;;15.07;7.38;;;6.60;53.20;;;;;;4998390;28;20053;-75
2021/04/03 05:02:04;;;;;;;12.23;5.78;;;6.60;53.30;;;;;;5015729;28;20073;-74
2021/04/03 05:04:30;;;;;;;13.73;7.25;;;6.40;53.50;;;;;;4998211;28;20026;-75
2021/04/03 05:06:55;;;;;;;16.58;7.95;;;6.20;53.90;;;;;;5015752;28;20041;-74
2021/04/03 05:09:21;;;;;;;13.35;8.65;;;6.20;54.40;;;;;;5015741;28;20030;-75
2021/04/03 05:11:47;;;;;;;13.90;7.70;;;6.10;54.60;;;;;;5030986;28;20375;-76
2021/04/03 05:14:12;;;;;;;13.82;7.25;;;6.10;54.70;;;;;;5030861;28;20057;-76
2021/04/03 05:16:38;;;;;;;15.75;7.40;;;6.10;55.50;;;;;;5030099;28;20061;-76
2021/04/03 05:19:03;;;;;;;12.95;6.32;;;6.10;54.70;;;;;;5030350;28;20030;-76
2021/04/03 05:21:29;;;;;;;15.55;6.68;;;6.10;54.80;;;;;;5030447;28;20026;-74
2021/04/03 05:23:54;;;;;;;13.65;5.80;;;6.10;55.00;;;;;;5015040;28;20037;-76
2021/04/03 05:26:20;;;;;;;12.35;6.03;;;6.20;55.00;;;;;;5029991;28;20026;-75
2021/04/03 05:28:45;;;;;;;11.60;5.80;;;6.30;55.00;;;;;;5015293;28;20465;-74
2021/04/03 05:31:12;;;;;;;13.30;6.60;;;6.30;55.20;;;;;;5016066;28;20025;-74
2021/04/03 05:33:37;;;;;;;13.02;6.88;;;6.40;54.70;;;;;;5022671;28;20109;-74
2021/04/03 05:36:03;;;;;;;15.00;6.35;;;6.30;54.50;;;;;;5015112;28;20065;-74
2021/04/03 05:38:28;;;;;;;10.88;5.97;;;6.40;54.30;;;;;;5014931;28;20109;-76
2021/04/03 05:40:54;;;;;;;17.92;6.43;;;6.40;54.20;;;;;;5014990;28;20033;-75
2021/04/03 05:43:20;;;;;;;9.20;6.10;;;6.40;54.00;;;;;;5029884;28;20034;-75
2021/04/03 05:45:51;;;;;;;9.98;5.55;;;6.40;54.00;;;;;;5029916;28;20072;-75
2021/04/03 05:48:18;;;;;;;10.80;6.82;;;6.50;54.20;;;;;;4997248;28;20232;-76
2021/04/03 05:50:44;;;;;;;11.68;6.47;;;6.50;54.20;;;;;;4997056;28;20022;-74
2021/04/03 05:53:10;;;;;;;12.02;6.03;;;6.50;54.10;;;;;;5015033;28;20150;-74
2021/04/03 05:55:36;;;;;;;12.52;5.97;;;6.50;53.90;;;;;;5014773;28;20434;-74
2021/04/03 05:58:01;;;;;;;16.60;6.32;;;6.50;53.90;;;;;;5014693;28;20030;-74
2021/04/03 06:00:27;;;;;;;12.32;6.30;;;6.60;53.80;;;;;;5029366;28;20025;-74
2021/04/03 06:02:53;;;;;;;13.23;6.70;;;6.70;53.70;;;;;;5014225;28;20042;-76
2021/04/03 06:05:18;;;;;;;12.43;6.15;;;6.70;53.40;;;;;;5029600;28;20026;-76
2021/04/03 06:07:44;;;;;;;11.52;6.38;;;6.70;53.40;;;;;;4996875;28;20133;-76
2021/04/03 06:10:11;;;;;;;13.65;6.43;;;6.70;53.30;;;;;;5029541;28;20022;-76
2021/04/03 06:12:40;;;;;;;13.20;6.07;;;6.70;53.10;;;;;;5014331;28;20459;-74
2021/04/03 06:15:07;;;;;;;12.02;6.05;;;6.80;53.10;;;;;;5029751;28;20026;-75
2021/04/03 06:17:33;;;;;;;13.52;6.40;;;6.80;53.10;;;;;;4996814;28;20033;-74
2021/04/03 06:19:59;;;;;;;9.07;5.80;;;6.90;53.00;;;;;;5014147;28;20022;-76
2021/04/03 06:22:25;;;;;;;7.53;5.82;;;7.00;52.70;;;;;;5029455;28;20021;-75
2021/04/03 06:25:06;;;;;;;10.85;5.50;;;7.10;52.50;;;;;;5014177;28;20041;-75
2021/04/03 06:27:32;;;;;;;9.35;5.45;;;7.20;52.00;;;;;;5013653;28;20026;-74
2021/04/03 06:29:58;;;;;;;9.38;5.38;;;7.30;51.90;;;;;;5028463;28;20026;-74
2021/04/03 06:32:28;;;;;;;10.38;5.72;;;7.30;51.60;;;;;;5013758;28;20028;-75
2021/04/03 06:34:54;;;;;;;11.40;5.45;;;7.40;51.40;;;;;;4996331;28;20080;-75
2021/04/03 06:37:24;;;;;;;17.08;6.22;;;7.40;51.10;;;;;;5028839;28;20025;-76
2021/04/03 06:39:57;;;;;;;11.43;6.05;;;7.40;50.90;;;;;;5028648;28;20463;-75
2021/04/03 06:42:39;;;;;;;12.50;5.38;;;7.40;50.90;;;;;;5024563;28;20042;-76
2021/04/03 06:45:23;;;;;;;14.23;5.35;;;7.40;50.90;;;;;;5029106;28;20053;-76
2021/04/03 06:47:51;;;;;;;7.75;5.00;;;7.50;51.10;;;;;;5028926;28;20554;-76
2021/04/03 06:50:19;;;;;;;10.82;5.47;;;7.50;50.90;;;;;;4996110;28;20030;-73
2021/04/03 06:52:45;;;;;;;10.75;5.15;;;7.60;50.70;;;;;;5028575;28;20034;-74
2021/04/03 06:55:13;;;;;;;11.80;5.20;;;7.70;50.60;;;;;;5028942;28;20026;-74
2021/04/03 06:57:41;;;;;;;11.15;4.95;;;7.60;50.30;;;;;;5013531;28;20022;-73
2021/04/03 07:00:08;;;;;;;7.43;4.60;;;7.50;50.30;;;;;;5013262;28;20014;-74
2021/04/03 07:02:44;;;;;;;6.60;3.58;;;7.60;50.30;;;;;;5013373;28;20030;-74
2021/04/03 07:05:13;;;;;;;7.97;3.20;;;7.70;50.50;;;;;;4995880;28;20029;-74
2021/04/03 07:07:40;;;;;;;6.72;3.40;;;7.60;50.30;;;;;;5028152;28;20499;-75
2021/04/03 07:10:07;;;;;;;9.20;4.82;;;7.70;50.00;;;;;;5013405;28;20030;-72
2021/04/03 07:12:33;;;;;;;9.57;4.32;;;7.70;50.00;;;;;;5013180;28;20017;-74
2021/04/03 07:15:02;;;;;;;8.52;3.88;;;7.70;50.10;;;;;;5013321;28;20040;-75
2021/04/03 07:17:29;;;;;;;9.15;4.65;;;7.80;50.10;;;;;;5013170;28;20557;-73
2021/04/03 07:19:56;;;;;;;5.43;3.92;;;7.90;50.00;;;;;;5013365;28;20109;-73
2021/04/03 07:22:23;;;;;;;13.30;4.53;;;7.90;49.90;;;;;;5028238;28;20030;-78
2021/04/03 07:24:49;;;;;;;9.93;4.32;;;8.00;49.70;;;;;;5012931;28;20479;-76
2021/04/03 07:27:15;;;;;;;14.75;4.80;;;8.00;49.70;;;;;;5013316;28;20065;-77
2021/04/03 07:29:48;;;;;;;9.05;3.92;;;8.10;49.50;;;;;;5012672;28;20041;-75
2021/04/03 07:32:29;;;;;;;9.18;3.50;;;8.10;50.00;;;;;;4994234;28;20072;-77
2021/04/03 07:34:55;;;;;;;7.85;3.88;;;8.20;49.70;;;;;;5012968;28;20030;-81
2021/04/03 07:37:35;;;;;;;11.27;4.30;;;8.40;49.90;;;;;;5028882;28;20509;-81
2021/04/03 07:40:02;;;;;;;12.40;4.80;;;8.50;48.80;;;;;;5015619;28;20636;-75
2021/04/03 07:42:33;;;;;;;9.63;4.38;;;8.30;48.20;;;;;;5007910;28;20052;-80
2021/04/03 07:45:00;;;;;;;27.95;5.55;;;8.20;48.30;;;;;;5027688;28;20026;-85
2021/04/03 07:47:26;;;;;;;18.98;5.32;;;8.10;52.40;;;;;;5016062;28;20101;-80
2021/04/03 07:49:54;;;;;;;10.73;4.13;;;8.70;57.10;;;;;;5029154;28;20030;-79
2021/04/03 07:52:52;;;;;;;9.70;3.72;;;9.30;55.00;;;;;;5013222;28;20033;-80
2021/04/03 07:55:40;;;;;;;9.63;3.65;;;9.90;51.30;;;;;;5012906;28;20108;-79
2021/04/03 07:58:27;;;;;;;5.88;2.67;;;10.20;47.80;;;;;;4995300;28;20091;-79
2021/04/03 08:00:54;;;;;;;11.32;3.88;;;10.50;46.90;;;;;;5012769;28;20052;-79
2021/04/03 08:03:23;;;;;;;5.30;2.85;;;10.70;46.00;;;;;;4995205;28;20034;-78
2021/04/03 08:06:09;;;;;;;5.35;3.08;;;11.00;44.80;;;;;;5012733;28;20021;-77
2021/04/03 08:08:39;;;;;;;6.95;3.00;;;11.10;43.40;;;;;;5011973;28;20061;-77
2021/04/03 08:11:12;;;;;;;8.07;3.35;;;11.00;42.90;;;;;;5012228;28;20489;-80
2021/04/03 08:13:43;;;;;;;5.43;2.70;;;10.90;42.80;;;;;;4994567;28;20120;-80
2021/04/03 08:16:11;;;;;;;8.32;3.15;;;10.90;43.20;;;;;;5027543;28;20018;-79
2021/04/03 08:18:40;;;;;;;11.10;3.78;;;10.80;42.60;;;;;;5012272;28;20033;-78
2021/04/03 08:21:07;;;;;;;8.48;3.30;;;10.80;44.90;;;;;;5012579;28;20026;-78
2021/04/03 08:23:41;;;;;;;12.52;3.45;;;10.60;42.90;;;;;;5027249;28;20066;-78
2021/04/03 08:26:08;;;;;;;8.65;2.90;;;10.40;43.90;;;;;;4994852;28;20030;-78
2021/04/03 08:28:34;;;;;;;4.97;2.72;;;10.50;44.30;;;;;;5012388;28;20032;-78
2021/04/03 08:31:17;;;;;;;8.30;3.08;;;10.80;45.10;;;;;;4994842;28;20030;-78
2021/04/03 08:33:44;;;;;;;7.70;3.25;;;11.00;44.90;;;;;;5027747;28;20036;-79
2021/04/03 08:36:12;;;;;;;8.32;3.40;;;10.80;42.70;;;;;;5027521;28;20096;-78
2021/04/03 08:38:38;;;;;;;5.50;3.65;;;10.50;41.70;;;;;;5027347;28;20026;-79
2021/04/03 08:41:04;;;;;;;8.75;3.88;;;10.00;41.10;;;;;;5027591;28;20498;-78
2021/04/03 08:43:31;;;;;;;5.18;2.40;;;9.60;41.70;;;;;;5012211;28;20034;-78
2021/04/03 08:46:08;;;;;;;8.73;3.50;;;9.50;42.50;;;;;;5011747;28;20053;-74
2021/04/03 08:48:38;;;;;;;8.65;3.70;;;9.40;43.30;;;;;;5011962;28;20386;-78
2021/04/03 08:51:06;;;;;;;7.15;3.45;;;9.20;43.10;;;;;;5012097;28;20039;-78
2021/04/03 08:54:00;;;;;;;6.85;3.10;;;9.00;43.10;;;;;;5015230;28;20029;-77
2021/04/03 08:56:33;;;;;;;4.50;2.78;;;9.10;42.70;;;;;;5015728;28;20062;-78
2021/04/03 08:59:00;;;;;;;4.18;2.85;;;9.00;42.50;;;;;;5015916;28;20056;-78
2021/04/03 09:01:29;;;;;;;5.50;3.38;;;8.90;42.60;;;;;;5015631;28;20101;-77
2021/04/03 09:03:58;;;;;;;8.13;3.65;;;8.80;42.70;;;;;;5015439;28;20147;-77
2021/04/03 09:06:47;;;;;;;10.27;3.90;;;8.70;43.00;;;;;;5015068;28;20096;-79
2021/04/03 09:09:15;;;;;;;8.02;4.10;;;8.30;43.40;;;;;;5015263;28;20040;-79
2021/04/03 09:12:00;;;;;;;8.30;3.25;;;8.10;43.90;;;;;;5015254;28;20030;-76
2021/04/03 09:14:36;;;;;;;6.67;3.50;;;8.20;44.50;;;;;;5030733;28;20108;-77
2021/04/03 09:17:22;;;;;;;7.40;3.22;;;8.30;44.90;;;;;;5015170;28;20377;-76
2021/04/03 09:19:48;;;;;;;5.70;3.13;;;8.50;45.00;;;;;;5015218;28;20125;-78
2021/04/03 09:22:16;;;;;;;9.68;3.38;;;8.60;44.80;;;;;;5014938;28;20108;-76
2021/04/03 09:24:58;;;;;;;7.45;3.28;;;8.60;44.60;;;;;;5015060;28;20040;-78
2021/04/03 09:27:26;;;;;;;9.73;3.22;;;8.70;44.30;;;;;;5014875;28;20028;-78
2021/04/03 09:30:06;;;;;;;8.20;3.47;;;8.80;43.60;;;;;;5015004;28;20088;-77
2021/04/03 09:32:45;;;;;;;4.47;3.20;;;8.80;42.80;;;;;;5014885;28;20022;-77
2021/04/03 09:35:14;;;;;;;6.88;2.58;;;8.80;42.20;;;;;;5030482;28;20030;-77
2021/04/03 09:37:40;;;;;;;5.22;2.53;;;8.80;41.90;;;;;;5014684;28;20125;-77
2021/04/03 09:40:07;;;;;;;4.28;2.25;;;8.60;41.50;;;;;;5016009;28;20486;-77
2021/04/03 09:42:34;;;;;;;4.53;2.08;;;8.70;41.60;;;;;;5030321;28;20403;-77
2021/04/03 09:45:03;;;;;;;5.97;2.55;;;8.80;41.50;;;;;;5014937;28;20095;-74
2021/04/03 09:47:29;;;;;;;5.55;2.90;;;9.00;41.20;;;;;;5030088;28;20030;-81
2021/04/03 09:49:55;;;;;;;7.63;3.60;;;9.10;41.20;;;;;;5014810;28;20360;-79
2021/04/03 09:52:20;;;;;;;4.72;2.55;;;9.10;41.20;;;;;;5014361;28;20113;-82
2021/04/03 09:54:48;;;;;;;11.75;4.57;;;9.00;41.30;;;;;;5014758;28;20475;-83
2021/04/03 09:57:14;;;;;;;6.65;3.95;;;9.00;41.90;;;;;;5014652;28;20033;-82
2021/04/03 09:59:41;;;;;;;4.43;3.08;;;9.20;42.00;;;;;;5014642;28;20165;-81
2021/04/03 10:02:08;;;;;;;8.98;3.97;;;9.10;41.90;;;;;;5014638;28;20113;-85
2021/04/03 10:04:33;;;;;;;12.80;3.20;;;9.00;42.40;;;;;;5014779;28;20099;-75
2021/04/03 10:06:59;;;;;;;6.25;3.40;;;8.80;43.10;;;;;;5014606;28;20490;-83
2021/04/03 10:09:25;;;;;;;8.27;3.20;;;8.60;43.70;;;;;;5014590;28;20163;-85
2021/04/03 10:11:52;;;;;;;8.63;3.33;;;8.20;44.00;;;;;;5014668;28;20064;-80
2021/04/03 10:14:18;;;;;;;6.22;3.45;;;8.10;44.50;;;;;;5014701;28;20018;-79
2021/04/03 10:16:43;;;;;;;9.98;3.65;;;8.10;44.90;;;;;;5029780;28;20026;-82
2021/04/03 10:19:09;;;;;;;7.82;3.55;;;8.20;45.10;;;;;;5014626;28;20026;-82
2021/04/03 10:21:35;;;;;;;9.27;3.97;;;8.20;45.20;;;;;;5013990;28;20032;-82
2021/04/03 10:24:01;;;;;;;6.85;3.15;;;8.30;45.20;;;;;;4996582;28;20406;-80
2021/04/03 10:26:28;;;;;;;10.68;3.60;;;8.30;45.30;;;;;;5013878;28;20038;-79
2021/04/03 10:28:53;;;;;;;5.70;3.33;;;8.40;45.40;;;;;;5014047;28;20103;-81
2021/04/03 10:31:19;;;;;;;7.85;3.80;;;8.60;45.10;;;;;;5014154;28;20022;-82
2021/04/03 10:33:45;;;;;;;9.38;4.47;;;8.70;45.10;;;;;;5013950;28;20477;-81
2021/04/03 10:36:11;;;;;;;7.82;3.55;;;8.70;45.00;;;;;;5014294;28;20030;-83
2021/04/03 10:38:37;;;;;;;5.93;3.58;;;8.60;44.90;;;;;;5013974;28;20101;-78
2021/04/03 10:41:04;;;;;;;7.43;3.72;;;8.70;44.90;;;;;;5013770;28;20029;-83
2021/04/03 10:43:30;;;;;;;7.43;3.72;;;8.80;44.60;;;;;;5014368;28;20116;-84
2021/04/03 10:45:56;;;;;;;6.57;3.47;;;9.00;43.90;;;;;;5014376;28;20049;-80
2021/04/03 10:48:22;;;;;;;8.05;3.40;;;9.00;43.30;;;;;;5014130;28;20038;-83
2021/04/03 10:50:47;;;;;;;5.07;2.88;;;9.00;42.50;;;;;;5013843;28;20018;-84
2021/04/03 10:53:13;;;;;;;6.45;2.97;;;9.00;41.60;;;;;;4996093;28;20026;-81
2021/04/03 10:55:39;;;;;;;5.28;3.38;;;9.10;41.30;;;;;;5013578;28;20033;-82
2021/04/03 10:58:05;;;;;;;5.57;2.85;;;9.20;41.00;;;;;;5028684;28;20026;-84
2021/04/03 11:00:31;;;;;;;8.15;3.17;;;9.40;40.80;;;;;;5013914;28;20026;-84
2021/04/03 11:02:57;;;;;;;6.20;2.88;;;9.70;39.80;;;;;;5013566;28;20033;-82
2021/04/03 11:05:23;;;;;;;14.43;3.28;;;9.80;39.70;;;;;;5013429;28;20026;-83
2021/04/03 11:07:49;;;;;;;8.07;2.70;;;9.40;38.40;;;;;;5013401;28;20078;-78
2021/04/03 11:10:15;;;;;;;7.00;3.47;;;9.40;38.40;;;;;;5013565;28;20025;-81
2021/04/03 11:12:41;;;;;;;6.15;2.88;;;9.40;38.20;;;;;;5028706;28;20026;-82
2021/04/03 11:15:08;;;;;;;7.20;3.33;;;9.90;38.20;;;;;;5012797;28;20036;-83
2021/04/03 11:17:34;;;;;;;6.43;3.00;;;10.40;38.70;;;;;;5013580;28;20367;-82
2021/04/03 11:20:00;;;;;;;5.28;2.40;;;10.80;37.30;;;;;;5013802;28;20025;-83
2021/04/03 11:22:26;;;;;;;5.80;2.53;;;10.80;36.80;;;;;;5013281;28;20070;-84
2021/04/03 11:24:52;;;;;;;3.83;2.13;;;11.30;36.50;;;;;;5013360;28;20034;-85
2021/04/03 11:27:17;;;;;;;3.78;2.08;;;11.70;35.80;;;;;;5013697;28;20156;-77
2021/04/03 11:29:43;;;;;;;6.18;2.35;;;11.90;34.80;;;;;;5013086;28;20026;-83
2021/04/03 11:32:09;;;;;;;4.22;2.17;;;12.00;34.00;;;;;;5013229;28;20486;-84
2021/04/03 11:34:35;;;;;;;4.78;2.17;;;12.10;33.40;;;;;;5013246;28;20026;-82
2021/04/03 11:37:00;;;;;;;3.42;2.38;;;12.10;33.30;;;;;;5013372;28;20026;-85
2021/04/03 11:39:26;;;;;;;4.15;2.30;;;12.00;32.90;;;;;;5013782;28;20032;-78
2021/04/03 11:41:51;;;;;;;6.03;2.40;;;11.80;32.90;;;;;;5013591;28;20042;-80
2021/04/03 11:44:17;;;;;;;5.20;2.33;;;11.80;33.00;;;;;;5014772;28;20029;-80
2021/04/03 11:46:43;;;;;;;5.30;2.35;;;11.60;33.00;;;;;;5013532;28;20129;-84
2021/04/03 11:49:08;;;;;;;6.30;2.17;;;11.40;33.20;;;;;;5013056;28;20479;-81
2021/04/03 11:51:34;;;;;;;3.22;1.95;;;10.80;33.10;;;;;;5013247;28;20018;-79
2021/04/03 11:54:00;;;;;;;5.50;2.30;;;10.70;33.30;;;;;;5015366;28;20463;-82
2021/04/03 11:56:25;;;;;;;4.70;2.53;;;10.60;33.60;;;;;;5013085;28;20034;-81
2021/04/03 11:58:51;;;;;;;5.43;1.90;;;10.80;34.00;;;;;;5013242;28;20038;-79
2021/04/03 12:01:16;;;;;;;5.30;1.90;;;11.10;34.10;;;;;;5013191;28;20026;-84
2021/04/03 12:03:42;;;;;;;5.45;2.33;;;11.20;33.80;;;;;;5013709;28;20042;-81
2021/04/03 12:06:08;;;;;;;3.90;2.30;;;11.40;33.80;;;;;;5014460;28;20018;-84
2021/04/03 12:08:33;;;;;;;5.63;2.78;;;11.60;33.70;;;;;;4998816;28;20351;-78
2021/04/03 12:10:59;;;;;;;4.80;2.25;;;11.80;33.40;;;;;;5015116;28;20033;-82
2021/04/03 12:13:26;;;;;;;4.18;2.30;;;12.00;33.20;;;;;;5014631;28;20033;-83
2021/04/03 12:15:52;;;;;;;4.00;2.38;;;11.90;32.70;;;;;;5014937;28;20113;-82
2021/04/03 12:18:18;;;;;;;4.93;2.60;;;12.10;32.40;;;;;;5001699;28;20030;-78
2021/04/03 12:20:44;;;;;;;4.05;1.95;;;12.20;32.10;;;;;;5013464;28;20029;-83
2021/04/03 12:23:09;;;;;;;5.05;2.13;;;12.50;32.00;;;;;;5014680;28;20088;-78
2021/04/03 12:25:35;;;;;;;4.43;2.53;;;12.80;31.50;;;;;;5014712;28;20564;-81
2021/04/03 12:28:00;;;;;;;4.97;2.05;;;12.70;30.70;;;;;;5015719;28;20080;-81
2021/04/03 12:30:26;;;;;;;6.03;2.35;;;12.50;30.20;;;;;;5016905;28;20394;-79
2021/04/03 12:32:51;;;;;;;3.50;1.83;;;12.50;30.20;;;;;;5017370;28;20026;-78
2021/04/03 12:35:17;;;;;;;3.70;2.20;;;12.30;30.30;;;;;;5017190;28;20022;-81
2021/04/03 12:37:43;;;;;;;5.60;2.30;;;12.20;30.50;;;;;;5016741;28;20112;-84
2021/04/03 12:40:09;;;;;;;5.63;2.42;;;11.80;30.80;;;;;;5016547;28;20094;-82
2021/04/03 12:42:35;;;;;;;4.68;2.45;;;11.40;31.10;;;;;;5016288;28;20030;-79
2021/04/03 12:45:01;;;;;;;3.50;2.40;;;11.40;31.50;;;;;;5032046;28;20033;-80
2021/04/03 12:47:26;;;;;;;4.35;2.33;;;11.20;31.80;;;;;;5017368;28;20026;-82
2021/04/03 12:49:52;;;;;;;7.70;2.55;;;11.30;32.20;;;;;;5017831;28;20097;-75
2021/04/03 12:52:18;;;;;;;4.72;2.67;;;11.50;32.60;;;;;;5017347;28;20025;-80
2021/04/03 12:54:43;;;;;;;6.20;2.60;;;12.00;32.60;;;;;;5014973;28;20038;-80